Time;durP1;ratioP1;P1;durP2;ratioP2;P2;SDS_P1;SDS_P2;PMS_P1;PMS_P2;Temp;Humidity;BMP_temperature;BMP_pressure;BME280_temperature;BME280_humidity;BME280_pressure;Samples;Min_cycle;Max_cycle;Signal;HPM_P1;HPM_P2
2023/06/07 00:02:04;;;;;;;8.65;3.80;;;;;;;;;;5001108;28;20505;-72
2023/06/07 00:04:30;;;;;;;9.68;3.85;;;;;;;;;;5004295;28;20056;-72
2023/06/07 00:07:00;;;;;;;11.38;4.05;;;;;;;;;;5002979;28;20038;-72
2023/06/07 00:09:27;;;;;;;10.60;3.85;;;;;;;;;;5003886;28;20062;-71
2023/06/07 00:11:54;;;;;;;9.07;3.95;;;;;;;;;;5009509;28;20052;-72
2023/06/07 00:14:20;;;;;;;9.27;4.22;;;;;;;;;;5015665;28;20049;-72
2023/06/07 00:16:47;;;;;;;9.40;3.80;;;;;;;;;;5001128;28;20096;-72
2023/06/07 00:19:15;;;;;;;12.45;4.07;;;;;;;;;;5005724;28;20052;-72
2023/06/07 00:21:40;;;;;;;12.48;4.50;;;18.20;98.30;;;;;;5008484;28;20444;-72
2023/06/07 00:24:06;;;;;;;10.60;3.80;;;14.30;99.90;;;;;;5007265;28;20158;-72
2023/06/07 00:26:32;;;;;;;13.07;4.07;;;14.10;99.90;;;;;;5003150;28;20514;-72
2023/06/07 00:28:58;;;;;;;9.88;3.95;;;14.20;99.90;;;;;;5005645;28;20042;-72
2023/06/07 00:31:24;;;;;;;11.32;3.60;;;14.10;99.90;;;;;;5002386;28;20500;-72
2023/06/07 00:33:49;;;;;;;10.57;4.03;;;14.10;99.90;;;;;;5004880;28;20096;-71
2023/06/07 00:36:15;;;;;;;9.23;4.22;;;14.10;99.90;;;;;;5003016;28;20049;-72
2023/06/07 00:38:41;;;;;;;11.27;4.18;;;14.10;99.90;;;;;;5006568;28;20096;-72
2023/06/07 00:41:06;;;;;;;6.93;3.58;;;14.10;99.90;;;;;;5005601;28;20054;-72
2023/06/07 00:43:32;;;;;;;7.75;3.97;;;14.10;99.90;;;;;;5008286;28;20056;-72
2023/06/07 00:45:58;;;;;;;11.68;4.00;;;14.10;99.90;;;;;;5005715;28;20044;-72
2023/06/07 00:48:24;;;;;;;10.05;3.75;;;14.10;99.90;;;;;;5005255;28;20482;-72
2023/06/07 00:50:50;;;;;;;11.57;4.18;;;14.00;99.90;;;;;;5003204;28;20084;-72
2023/06/07 00:53:16;;;;;;;9.00;3.67;;;14.00;99.90;;;;;;5005669;28;20041;-72
2023/06/07 00:55:42;;;;;;;9.40;3.92;;;14.00;99.90;;;;;;5004794;28;20034;-72
2023/06/07 00:58:08;;;;;;;9.70;4.35;;;14.10;99.90;;;;;;4999021;28;20069;-72
2023/06/07 01:00:35;;;;;;;11.75;3.70;;;14.00;99.90;;;;;;5003549;28;20092;-72
2023/06/07 01:03:00;;;;;;;11.52;3.88;;;14.00;99.90;;;;;;5023049;28;20125;-72
2023/06/07 01:05:26;;;;;;;7.90;3.60;;;14.00;99.90;;;;;;5005429;28;20133;-72
2023/06/07 01:07:53;;;;;;;16.20;4.88;;;14.00;99.90;;;;;;5004079;28;20370;-72
2023/06/07 01:10:19;;;;;;;13.23;4.10;;;14.00;99.90;;;;;;5013619;28;20060;-72
2023/06/07 01:12:47;;;;;;;10.55;4.07;;;14.00;99.90;;;;;;5013495;28;20513;-72
2023/06/07 01:15:14;;;;;;;9.75;4.25;;;14.10;99.90;;;;;;5003753;28;20092;-72
2023/06/07 01:17:44;;;;;;;10.38;4.00;;;14.00;99.90;;;;;;5010306;28;20501;-72
2023/06/07 01:20:23;;;;;;;13.50;4.20;;;14.00;99.90;;;;;;5014138;28;20377;-72
2023/06/07 01:22:51;;;;;;;12.07;4.38;;;14.00;99.90;;;;;;5012338;28;20133;-73
2023/06/07 01:25:17;;;;;;;9.55;3.70;;;14.10;99.90;;;;;;5007829;28;20042;-73
2023/06/07 01:27:45;;;;;;;7.70;3.67;;;14.10;99.90;;;;;;5027823;28;20045;-73
2023/06/07 01:30:12;;;;;;;12.48;4.38;;;14.00;99.90;;;;;;5006102;28;20046;-72
2023/06/07 01:32:41;;;;;;;8.18;3.72;;;14.10;99.90;;;;;;5014661;28;20100;-72
2023/06/07 01:35:09;;;;;;;8.65;3.58;;;13.90;99.90;;;;;;5008460;28;20088;-73
2023/06/07 01:37:36;;;;;;;7.07;4.03;;;13.90;99.90;;;;;;5011851;28;20035;-72
2023/06/07 01:40:05;;;;;;;11.38;3.83;;;13.90;99.90;;;;;;5003416;28;20413;-72
2023/06/07 01:42:34;;;;;;;6.68;3.38;;;13.80;99.90;;;;;;5006832;28;20387;-72
2023/06/07 01:45:01;;;;;;;10.43;4.00;;;13.90;99.90;;;;;;5012992;28;20389;-72
2023/06/07 01:47:27;;;;;;;9.02;3.83;;;13.80;99.90;;;;;;5010174;28;20417;-72
2023/06/07 01:49:53;;;;;;;9.13;4.05;;;13.70;99.90;;;;;;5008927;28;20046;-72
2023/06/07 01:52:18;;;;;;;7.75;3.60;;;13.70;99.90;;;;;;5012381;28;20137;-73
2023/06/07 01:54:45;;;;;;;10.50;3.97;;;13.60;99.90;;;;;;5012067;28;20861;-72
2023/06/07 01:57:30;;;;;;;9.98;3.85;;;13.60;99.90;;;;;;5013716;28;20042;-72
2023/06/07 02:00:08;;;;;;;10.80;3.65;;;13.60;99.90;;;;;;5010270;28;20848;-72
2023/06/07 02:02:48;;;;;;;10.02;3.72;;;13.60;99.90;;;;;;5005813;28;20375;-72
2023/06/07 02:05:24;;;;;;;7.85;3.60;;;13.60;99.90;;;;;;5011060;28;20046;-72
2023/06/07 02:07:53;;;;;;;10.45;3.90;;;13.70;99.90;;;;;;5012821;28;20052;-72
2023/06/07 02:10:25;;;;;;;11.88;4.40;;;13.70;99.90;;;;;;5005344;28;20049;-73
2023/06/07 02:12:53;;;;;;;7.20;3.70;;;13.90;99.90;;;;;;5010527;28;20524;-72
2023/06/07 02:15:19;;;;;;;7.90;4.00;;;13.90;99.90;;;;;;5004269;28;20519;-72
2023/06/07 02:17:57;;;;;;;10.38;3.67;;;13.80;99.90;;;;;;5008298;28;20181;-72
2023/06/07 02:20:24;;;;;;;11.70;4.18;;;13.80;99.90;;;;;;5004594;28;21319;-72
2023/06/07 02:22:50;;;;;;;7.90;3.85;;;13.80;99.90;;;;;;5007269;28;20045;-72
2023/06/07 02:25:16;;;;;;;8.80;4.25;;;13.80;99.90;;;;;;5006841;28;20038;-72
2023/06/07 02:27:41;;;;;;;13.05;4.50;;;13.60;99.90;;;;;;5010477;28;20034;-72
2023/06/07 02:30:08;;;;;;;13.13;4.05;;;13.70;99.90;;;;;;5008614;28;20050;-72
2023/06/07 02:32:34;;;;;;;10.35;4.38;;;13.70;99.90;;;;;;5008733;28;20041;-72
2023/06/07 02:35:00;;;;;;;12.32;3.85;;;13.70;99.90;;;;;;5007866;28;20054;-72
2023/06/07 02:37:27;;;;;;;12.95;4.35;;;13.70;99.90;;;;;;5007079;28;20272;-72
2023/06/07 02:39:53;;;;;;;10.32;4.28;;;13.80;99.90;;;;;;5004896;28;20034;-72
2023/06/07 02:42:19;;;;;;;11.63;4.38;;;13.60;99.90;;;;;;5003531;28;20525;-72
2023/06/07 02:44:44;;;;;;;10.50;3.55;;;13.50;99.90;;;;;;5009617;28;20393;-73
2023/06/07 02:47:10;;;;;;;8.10;3.67;;;13.40;99.90;;;;;;5006388;28;20379;-73
2023/06/07 02:49:36;;;;;;;9.98;4.30;;;13.40;99.90;;;;;;5007170;28;20632;-74
2023/06/07 02:52:01;;;;;;;9.10;3.85;;;13.50;99.90;;;;;;5000091;28;20068;-73
2023/06/07 02:54:27;;;;;;;10.38;4.35;;;13.40;99.90;;;;;;5007101;28;20120;-73
2023/06/07 02:56:52;;;;;;;10.90;3.90;;;13.50;99.90;;;;;;5009705;28;20041;-73
2023/06/07 02:59:18;;;;;;;9.00;4.22;;;13.60;99.90;;;;;;5005884;28;20516;-74
2023/06/07 03:01:44;;;;;;;9.95;3.90;;;13.60;99.90;;;;;;5004566;28;20496;-74
2023/06/07 03:04:09;;;;;;;8.82;3.40;;;13.60;99.90;;;;;;5008020;28;20489;-73
2023/06/07 03:06:35;;;;;;;10.02;3.40;;;13.60;99.90;;;;;;5007121;28;20030;-73
2023/06/07 03:09:00;;;;;;;8.73;3.38;;;13.40;99.90;;;;;;5008510;28;20049;-74
2023/06/07 03:11:26;;;;;;;5.68;3.08;;;13.40;99.90;;;;;;5006253;28;20184;-72
2023/06/07 03:13:52;;;;;;;10.25;3.63;;;13.40;99.90;;;;;;5005082;28;20120;-72
2023/06/07 03:16:17;;;;;;;10.02;3.80;;;13.50;99.90;;;;;;5005349;28;20139;-72
2023/06/07 03:18:43;;;;;;;7.97;3.92;;;13.60;99.90;;;;;;5010170;28;20456;-72
2023/06/07 03:21:09;;;;;;;10.15;3.65;;;13.60;99.90;;;;;;5002545;28;20058;-72
2023/06/07 03:23:34;;;;;;;6.57;3.50;;;13.50;99.90;;;;;;5002593;28;20037;-72
2023/06/07 03:26:01;;;;;;;9.30;3.92;;;13.40;99.90;;;;;;5004596;28;20030;-72
2023/06/07 03:28:26;;;;;;;9.10;3.90;;;13.50;99.90;;;;;;5006616;28;20675;-72
2023/06/07 03:30:52;;;;;;;8.75;3.55;;;13.50;99.90;;;;;;5009239;28;20125;-72
2023/06/07 03:33:17;;;;;;;12.18;3.63;;;13.50;99.90;;;;;;5006712;28;20052;-72
2023/06/07 03:35:44;;;;;;;9.38;3.97;;;13.50;99.90;;;;;;5009995;28;20568;-72
2023/06/07 03:38:10;;;;;;;10.57;3.80;;;13.50;99.90;;;;;;5004944;28;20048;-72
2023/06/07 03:40:36;;;;;;;7.38;4.40;;;13.40;99.90;;;;;;5006068;28;20038;-72
2023/06/07 03:43:01;;;;;;;8.30;3.55;;;13.40;99.90;;;;;;5008144;28;20492;-72
2023/06/07 03:45:27;;;;;;;12.82;3.17;;;13.50;99.90;;;;;;5006773;28;20652;-72
2023/06/07 03:47:53;;;;;;;6.90;3.00;;;13.40;99.90;;;;;;5005142;28;20042;-72
2023/06/07 03:50:20;;;;;;;9.20;3.60;;;13.40;99.90;;;;;;5005653;28;20053;-72
2023/06/07 03:52:46;;;;;;;9.48;3.67;;;13.50;99.90;;;;;;5004682;28;20446;-72
2023/06/07 03:55:11;;;;;;;11.65;3.72;;;13.50;99.90;;;;;;5018378;28;20069;-72
2023/06/07 03:57:37;;;;;;;10.57;3.67;;;13.50;99.90;;;;;;5005081;28;20062;-72
2023/06/07 04:00:11;;;;;;;9.15;3.97;;;13.50;99.90;;;;;;5008220;28;20042;-72
2023/06/07 04:02:37;;;;;;;8.07;3.58;;;13.60;99.90;;;;;;5002969;28;20088;-72
2023/06/07 04:05:03;;;;;;;8.20;4.00;;;13.50;99.90;;;;;;5008732;28;20058;-72
2023/06/07 04:07:30;;;;;;;13.38;4.00;;;13.60;99.90;;;;;;4999564;28;20514;-72
2023/06/07 04:09:55;;;;;;;7.68;3.53;;;13.60;99.90;;;;;;5008923;28;20125;-71
2023/06/07 04:12:21;;;;;;;10.02;3.97;;;13.60;99.90;;;;;;5002476;28;20121;-72
2023/06/07 04:14:46;;;;;;;10.23;4.05;;;13.60;99.90;;;;;;5003443;28;20078;-72
2023/06/07 04:17:12;;;;;;;8.13;3.40;;;13.70;99.90;;;;;;5006069;28;20338;-72
2023/06/07 04:19:38;;;;;;;10.25;3.47;;;13.70;99.90;;;;;;5006958;28;20482;-72
2023/06/07 04:22:04;;;;;;;5.80;3.25;;;13.80;99.90;;;;;;5007084;28;20034;-72
2023/06/07 04:24:31;;;;;;;7.57;3.70;;;13.70;99.90;;;;;;5003148;28;20571;-72
2023/06/07 04:26:57;;;;;;;7.68;3.70;;;13.70;99.90;;;;;;5002734;28;20099;-72
2023/06/07 04:29:25;;;;;;;9.52;4.00;;;13.80;99.90;;;;;;5003364;28;20042;-74
2023/06/07 04:31:52;;;;;;;10.55;3.90;;;13.80;99.90;;;;;;5005245;28;20050;-71
2023/06/07 04:34:21;;;;;;;6.85;3.40;;;13.80;99.90;;;;;;4999759;28;20490;-72
2023/06/07 04:36:49;;;;;;;12.30;3.83;;;13.80;99.90;;;;;;5002082;28;20037;-72
2023/06/07 04:39:14;;;;;;;8.10;3.35;;;13.80;99.90;;;;;;5007234;28;20041;-72
2023/06/07 04:41:40;;;;;;;7.45;3.40;;;13.80;99.90;;;;;;5005600;28;20038;-71
2023/06/07 04:44:07;;;;;;;8.82;3.92;;;13.80;99.90;;;;;;4999832;28;20045;-71
2023/06/07 04:46:32;;;;;;;9.90;4.05;;;13.70;99.90;;;;;;5006056;28;20049;-71
2023/06/07 04:48:58;;;;;;;8.90;3.92;;;13.80;99.90;;;;;;5004437;28;20079;-71
2023/06/07 04:51:26;;;;;;;10.65;4.30;;;13.70;99.90;;;;;;5017050;28;20038;-72
2023/06/07 04:53:58;;;;;;;10.07;4.20;;;13.90;99.90;;;;;;5001694;28;20053;-71
2023/06/07 04:56:26;;;;;;;8.20;3.50;;;13.80;99.90;;;;;;5000541;28;20097;-71
2023/06/07 04:58:53;;;;;;;7.28;3.15;;;13.90;99.90;;;;;;5005933;28;20137;-72
2023/06/07 05:01:19;;;;;;;8.63;3.42;;;14.00;99.90;;;;;;5002387;28;20042;-72
2023/06/07 05:03:44;;;;;;;7.03;3.55;;;14.10;99.90;;;;;;5004175;28;20037;-71
2023/06/07 05:06:11;;;;;;;8.65;3.70;;;14.00;99.90;;;;;;4999453;28;20555;-72
2023/06/07 05:08:36;;;;;;;9.98;3.50;;;14.00;99.90;;;;;;5004561;28;20489;-71
2023/06/07 05:11:02;;;;;;;9.10;3.30;;;14.00;99.90;;;;;;5013728;28;20049;-71
2023/06/07 05:13:28;;;;;;;7.70;3.63;;;13.90;99.90;;;;;;5003687;28;20054;-72
2023/06/07 05:15:54;;;;;;;10.68;3.85;;;14.00;99.90;;;;;;5007884;28;20112;-71
2023/06/07 05:18:20;;;;;;;9.80;4.10;;;14.00;99.90;;;;;;5003184;28;20481;-71
2023/06/07 05:20:46;;;;;;;11.52;3.80;;;14.20;99.90;;;;;;5007953;28;20100;-71
2023/06/07 05:23:16;;;;;;;8.50;3.50;;;14.10;99.90;;;;;;5004329;28;20173;-71
2023/06/07 05:25:46;;;;;;;10.88;4.07;;;14.00;99.90;;;;;;5006885;28;20104;-72
2023/06/07 05:28:12;;;;;;;15.25;4.20;;;14.00;99.90;;;;;;5003152;28;20474;-72
2023/06/07 05:30:38;;;;;;;9.90;4.60;;;14.10;99.90;;;;;;5007514;28;20050;-72
2023/06/07 05:33:05;;;;;;;9.23;4.00;;;14.10;99.90;;;;;;5003158;28;20074;-73
2023/06/07 05:35:32;;;;;;;11.02;4.15;;;14.20;99.90;;;;;;4999171;28;20053;-72
2023/06/07 05:37:57;;;;;;;10.48;4.35;;;14.00;99.90;;;;;;5005632;28;20053;-73
2023/06/07 05:40:23;;;;;;;11.57;4.00;;;14.10;99.90;;;;;;5007429;28;20037;-72
2023/06/07 05:42:50;;;;;;;7.18;4.13;;;14.20;99.90;;;;;;5001888;28;20478;-72
2023/06/07 05:45:16;;;;;;;8.63;3.95;;;14.20;99.90;;;;;;5004415;28;20054;-72
2023/06/07 05:47:43;;;;;;;8.00;3.97;;;14.40;99.90;;;;;;5005670;28;20038;-74
2023/06/07 05:50:10;;;;;;;7.32;4.38;;;14.40;99.90;;;;;;5004852;28;20042;-72
2023/06/07 05:52:37;;;;;;;9.80;3.80;;;14.40;99.90;;;;;;5005470;28;20046;-72
2023/06/07 05:55:03;;;;;;;8.98;4.22;;;14.40;99.90;;;;;;4998483;28;20085;-72
2023/06/07 05:57:29;;;;;;;12.45;4.40;;;14.40;99.90;;;;;;4996547;28;20418;-71
2023/06/07 05:59:55;;;;;;;17.90;4.45;;;14.50;99.90;;;;;;5006728;28;20057;-72
2023/06/07 06:02:23;;;;;;;12.88;4.28;;;14.50;99.90;;;;;;5004619;28;20038;-71
2023/06/07 06:04:48;;;;;;;7.22;3.70;;;14.50;99.90;;;;;;5008362;28;20050;-72
2023/06/07 06:07:16;;;;;;;11.50;4.38;;;14.40;99.90;;;;;;5009324;28;20108;-71
2023/06/07 06:09:41;;;;;;;9.82;4.05;;;14.40;99.90;;;;;;5008273;28;20042;-71
2023/06/07 06:12:08;;;;;;;7.93;3.60;;;14.50;99.90;;;;;;5008685;28;20091;-72
2023/06/07 06:14:33;;;;;;;7.03;3.90;;;14.50;99.90;;;;;;5006704;28;20042;-71
2023/06/07 06:16:59;;;;;;;11.05;4.10;;;14.60;99.90;;;;;;4998700;28;20516;-72
2023/06/07 06:19:25;;;;;;;7.25;3.53;;;14.60;99.90;;;;;;5005467;28;20054;-72
2023/06/07 06:21:51;;;;;;;7.80;3.88;;;;;;;;;;5005038;28;20038;-72
2023/06/07 06:24:17;;;;;;;8.43;3.63;;;;;;;;;;5000568;28;20038;-72
2023/06/07 06:26:43;;;;;;;9.35;4.00;;;;;;;;;;5008628;28;20042;-72
2023/06/07 06:29:09;;;;;;;10.88;3.85;;;;;;;;;;5008736;28;20482;-71
2023/06/07 06:31:35;;;;;;;7.63;4.25;;;;;;;;;;5005982;28;20042;-72
2023/06/07 06:34:02;;;;;;;9.38;3.95;;;14.70;99.90;;;;;;5008144;28;20143;-72
2023/06/07 06:36:28;;;;;;;10.30;4.25;;;14.90;99.90;;;;;;5008643;28;20431;-72
2023/06/07 06:38:54;;;;;;;17.42;5.40;;;15.00;99.90;;;;;;5012432;28;20050;-72
2023/06/07 06:41:20;;;;;;;12.25;4.25;;;15.00;99.90;;;;;;5013226;28;20405;-72
2023/06/07 06:43:45;;;;;;;9.60;3.78;;;15.00;99.90;;;;;;5006838;28;20037;-72
2023/06/07 06:46:11;;;;;;;8.70;3.60;;;15.10;99.90;;;;;;5009074;28;20524;-71
2023/06/07 06:48:37;;;;;;;10.05;4.07;;;15.10;99.90;;;;;;5012718;28;20050;-72
2023/06/07 06:51:03;;;;;;;10.00;3.50;;;15.30;99.90;;;;;;4996730;28;20403;-72
2023/06/07 06:53:28;;;;;;;6.40;3.63;;;15.30;99.90;;;;;;4999830;28;20037;-72
2023/06/07 06:55:54;;;;;;;8.45;3.90;;;15.30;99.90;;;;;;5003323;28;20612;-71
2023/06/07 06:58:20;;;;;;;9.38;4.10;;;15.30;99.90;;;;;;5008346;28;20058;-72
2023/06/07 07:00:46;;;;;;;7.47;3.80;;;15.40;99.90;;;;;;5001721;28;20042;-73
2023/06/07 07:03:11;;;;;;;9.13;4.38;;;15.40;99.90;;;;;;5002474;28;20065;-73
2023/06/07 07:05:37;;;;;;;8.82;3.95;;;15.40;99.90;;;;;;5010966;28;20417;-72
2023/06/07 07:08:03;;;;;;;9.15;3.92;;;15.40;99.90;;;;;;5000097;28;20054;-72
2023/06/07 07:10:28;;;;;;;10.45;4.38;;;15.60;99.90;;;;;;5004465;28;20531;-72
2023/06/07 07:12:54;;;;;;;8.77;4.50;;;15.80;99.90;;;;;;5013228;28;20050;-72
2023/06/07 07:15:20;;;;;;;10.00;4.20;;;15.80;99.90;;;;;;5008201;28;20049;-72
2023/06/07 07:17:47;;;;;;;11.07;4.20;;;15.90;99.90;;;;;;4997809;28;20135;-72
2023/06/07 07:20:14;;;;;;;7.97;4.63;;;15.80;99.90;;;;;;5008850;28;20430;-73
2023/06/07 07:22:41;;;;;;;12.43;4.30;;;15.80;99.90;;;;;;5013035;28;20065;-72
2023/06/07 07:25:07;;;;;;;9.30;4.50;;;15.90;99.90;;;;;;5005216;28;20041;-72
2023/06/07 07:27:33;;;;;;;7.47;4.05;;;16.10;99.90;;;;;;5008597;28;20552;-72
2023/06/07 07:29:59;;;;;;;9.30;4.18;;;16.00;99.90;;;;;;5011568;28;20096;-72
2023/06/07 07:32:25;;;;;;;8.75;4.35;;;16.10;99.90;;;;;;5009716;28;20104;-72
2023/06/07 07:34:51;;;;;;;9.82;4.45;;;16.10;99.90;;;;;;4996072;28;20049;-72
2023/06/07 07:37:17;;;;;;;10.07;4.13;;;16.20;99.90;;;;;;5009298;28;20080;-72
2023/06/07 07:39:42;;;;;;;8.18;4.18;;;16.20;99.90;;;;;;5008428;28;20049;-71
2023/06/07 07:42:08;;;;;;;7.38;4.10;;;16.30;99.90;;;;;;5009165;28;20121;-72
2023/06/07 07:44:34;;;;;;;8.27;4.05;;;16.30;99.90;;;;;;5005453;28;20042;-72
2023/06/07 07:47:00;;;;;;;12.05;4.50;;;16.40;99.90;;;;;;5002251;28;20046;-72
2023/06/07 07:49:26;;;;;;;11.20;4.15;;;16.40;99.90;;;;;;4994741;28;20051;-72
2023/06/07 07:51:51;;;;;;;8.70;4.07;;;16.50;99.90;;;;;;5005996;28;20045;-73
2023/06/07 07:54:17;;;;;;;8.10;4.20;;;16.50;99.90;;;;;;5001730;28;20197;-73
2023/06/07 07:56:43;;;;;;;8.48;4.13;;;16.50;99.90;;;;;;5004674;28;20034;-72
2023/06/07 07:59:09;;;;;;;8.13;4.00;;;16.60;99.90;;;;;;5004705;28;20078;-72
2023/06/07 08:01:35;;;;;;;9.52;4.63;;;16.70;99.90;;;;;;5001101;28;20557;-74
2023/06/07 08:04:00;;;;;;;11.90;5.00;;;16.60;99.90;;;;;;5000378;28;20046;-72
2023/06/07 08:06:26;;;;;;;9.77;4.63;;;16.80;99.90;;;;;;4999702;28;20034;-72
2023/06/07 08:08:52;;;;;;;7.18;4.57;;;17.20;99.90;;;;;;4999478;28;20042;-73
2023/06/07 08:11:17;;;;;;;8.20;4.35;;;17.00;99.90;;;;;;5005025;28;20084;-72
2023/06/07 08:13:43;;;;;;;9.15;4.22;;;16.80;99.90;;;;;;5008390;28;20041;-72
2023/06/07 08:16:09;;;;;;;10.55;4.35;;;16.60;99.90;;;;;;5005148;28;20034;-72
2023/06/07 08:18:34;;;;;;;13.05;4.45;;;16.70;99.90;;;;;;5005447;28;20053;-72
2023/06/07 08:21:00;;;;;;;11.07;4.30;;;16.40;99.90;;;;;;5006852;28;20041;-72
2023/06/07 08:23:26;;;;;;;6.25;4.03;;;16.30;99.90;;;;;;5004317;28;20580;-72
2023/06/07 08:25:52;;;;;;;13.55;4.55;;;16.50;99.90;;;;;;5004992;28;20074;-72
2023/06/07 08:28:18;;;;;;;10.68;5.05;;;16.40;99.90;;;;;;5004273;28;20038;-73
2023/06/07 08:30:43;;;;;;;9.32;4.85;;;16.80;99.90;;;;;;5009349;28;20065;-72
2023/06/07 08:33:09;;;;;;;17.08;4.88;;;16.90;99.90;;;;;;5004692;28;20510;-72
2023/06/07 08:35:34;;;;;;;12.35;4.97;;;16.90;99.90;;;;;;5000443;28;20033;-72
2023/06/07 08:38:00;;;;;;;11.48;4.95;;;17.10;99.90;;;;;;5005232;28;20034;-72
2023/06/07 08:40:26;;;;;;;8.60;4.47;;;17.30;99.90;;;;;;5004344;28;20053;-72
2023/06/07 08:42:52;;;;;;;9.93;4.45;;;17.40;99.90;;;;;;4996221;28;20117;-72
2023/06/07 08:45:17;;;;;;;11.20;4.35;;;17.20;99.90;;;;;;4994797;28;20042;-73
2023/06/07 08:47:44;;;;;;;11.50;5.05;;;17.50;99.90;;;;;;5004709;28;20493;-72
2023/06/07 08:50:14;;;;;;;8.75;4.20;;;17.50;99.90;;;;;;5012581;28;20057;-72
2023/06/07 08:52:41;;;;;;;11.73;5.10;;;17.20;99.90;;;;;;5020659;28;20084;-72
2023/06/07 08:55:12;;;;;;;12.38;4.60;;;17.20;99.90;;;;;;5010081;28;20490;-72
2023/06/07 08:57:39;;;;;;;7.03;4.30;;;17.20;99.90;;;;;;4999341;28;20171;-72
2023/06/07 09:00:06;;;;;;;9.35;4.40;;;17.40;99.90;;;;;;5001082;28;20470;-72
2023/06/07 09:02:32;;;;;;;10.60;5.03;;;17.40;99.90;;;;;;5001557;28;20052;-72
2023/06/07 09:05:05;;;;;;;7.40;4.55;;;17.60;99.90;;;;;;4995809;28;20042;-72
2023/06/07 09:07:31;;;;;;;11.82;5.00;;;;;;;;;;5017465;28;20371;-73
2023/06/07 09:09:57;;;;;;;10.60;5.05;;;17.80;99.90;;;;;;5002087;28;20038;-71
2023/06/07 09:12:23;;;;;;;11.95;4.88;;;17.80;99.90;;;;;;5003366;28;20516;-71
2023/06/07 09:14:49;;;;;;;11.77;4.53;;;17.80;99.90;;;;;;4997305;28;20088;-73
2023/06/07 09:17:14;;;;;;;8.90;4.45;;;17.70;99.90;;;;;;5004147;28;20073;-71
2023/06/07 09:19:41;;;;;;;10.18;4.82;;;17.70;99.90;;;;;;4997342;28;20501;-71
2023/06/07 09:22:09;;;;;;;10.13;4.88;;;17.60;99.90;;;;;;4996234;28;20034;-72
2023/06/07 09:24:36;;;;;;;11.60;4.55;;;17.80;99.90;;;;;;5002567;28;20129;-70
2023/06/07 09:27:03;;;;;;;12.32;5.55;;;17.70;99.90;;;;;;5006678;28;20029;-71
2023/06/07 09:29:29;;;;;;;8.50;5.50;;;17.70;99.90;;;;;;5005813;28;20045;-71
2023/06/07 09:31:56;;;;;;;11.55;4.80;;;17.70;99.90;;;;;;5010552;28;20038;-70
2023/06/07 11:34:29;;;;;;;11.95;5.80;;;17.50;99.90;;;;;;5063649;27;20853;-70
2023/06/07 11:37:08;;;;;;;10.07;5.88;;;17.50;99.90;;;;;;5059407;28;20081;-71
2023/06/07 11:39:34;;;;;;;8.93;6.05;;;17.50;99.90;;;;;;5056243;28;20102;-71
2023/06/07 11:42:00;;;;;;;10.75;5.70;;;17.60;99.90;;;;;;5068455;28;20040;-71
2023/06/07 11:44:26;;;;;;;10.25;5.15;;;17.70;99.90;;;;;;5068594;28;20488;-71
2023/06/07 11:46:51;;;;;;;13.07;5.55;;;17.70;99.90;;;;;;5051830;28;20474;-72
2023/06/07 11:49:17;;;;;;;12.18;5.65;;;17.90;99.90;;;;;;5052244;28;20036;-72
2023/06/07 11:51:50;;;;;;;8.30;5.47;;;18.00;99.90;;;;;;5058794;28;20484;-72
2023/06/07 11:54:16;;;;;;;9.73;5.30;;;18.10;99.90;;;;;;5045122;28;20053;-71
2023/06/07 11:56:42;;;;;;;8.07;5.03;;;18.40;99.90;;;;;;5062148;28;20114;-71
2023/06/07 11:59:14;;;;;;;11.93;5.53;;;18.50;99.90;;;;;;5056075;28;20128;-71
2023/06/07 12:01:40;;;;;;;12.60;5.57;;;18.50;99.90;;;;;;5068595;28;20511;-71
2023/06/07 12:04:09;;;;;;;15.82;5.50;;;18.50;99.90;;;;;;5058389;28;20492;-71
2023/06/07 12:06:35;;;;;;;11.20;5.38;;;18.50;99.90;;;;;;5055150;28;20041;-72
2023/06/07 12:09:01;;;;;;;15.00;5.43;;;18.60;99.90;;;;;;5046171;28;21382;-71
2023/06/07 12:11:27;;;;;;;9.75;5.15;;;18.70;99.90;;;;;;5048738;28;20069;-72
2023/06/07 12:13:53;;;;;;;10.80;5.35;;;18.70;99.90;;;;;;5060213;28;20041;-72
2023/06/07 12:16:21;;;;;;;11.02;5.03;;;18.70;99.90;;;;;;5058286;28;20420;-72
2023/06/07 12:18:47;;;;;;;7.72;4.70;;;18.70;99.90;;;;;;5048338;28;20053;-72
2023/06/07 12:21:15;;;;;;;11.23;5.40;;;18.90;99.90;;;;;;5050724;28;20041;-71
2023/06/07 12:23:50;;;;;;;9.55;5.40;;;18.80;99.90;;;;;;5060451;28;20498;-71
2023/06/07 12:26:19;;;;;;;9.85;5.63;;;18.70;99.90;;;;;;5055276;28;20378;-71
2023/06/07 12:28:47;;;;;;;12.95;5.53;;;18.70;99.90;;;;;;5045230;28;20037;-77
2023/06/07 12:31:19;;;;;;;8.00;5.15;;;18.70;99.90;;;;;;5057945;28;20045;-72
2023/06/07 12:34:01;;;;;;;8.95;4.82;;;18.80;99.90;;;;;;5051890;28;20052;-72
2023/06/07 12:36:33;;;;;;;10.63;5.43;;;18.90;99.90;;;;;;5045862;28;20087;-74
2023/06/07 12:39:09;;;;;;;11.32;5.10;;;18.90;99.90;;;;;;5051276;28;20095;-72
2023/06/07 12:41:36;;;;;;;13.15;5.95;;;18.90;99.90;;;;;;5052527;28;20155;-72
2023/06/07 12:44:04;;;;;;;13.18;5.57;;;18.90;99.90;;;;;;5052690;28;20056;-72
2023/06/07 12:46:30;;;;;;;11.13;5.40;;;19.20;99.90;;;;;;5044306;28;20053;-72
2023/06/07 12:48:56;;;;;;;8.48;4.70;;;19.40;99.90;;;;;;5050743;28;20091;-73
2023/06/07 12:51:22;;;;;;;11.52;5.03;;;19.30;99.90;;;;;;5044810;28;20049;-72
2023/06/07 12:53:47;;;;;;;10.10;5.28;;;19.40;99.90;;;;;;5035879;28;20548;-73
2023/06/07 12:56:13;;;;;;;11.35;5.25;;;19.30;99.90;;;;;;5039624;28;20072;-73
2023/06/07 12:58:39;;;;;;;13.93;5.88;;;19.30;99.90;;;;;;5038541;28;20550;-74
2023/06/07 13:01:05;;;;;;;10.40;5.22;;;19.40;99.90;;;;;;5047529;28;20087;-74
2023/06/07 13:03:31;;;;;;;11.23;5.35;;;19.50;99.90;;;;;;5041152;28;20397;-74
2023/06/07 13:05:56;;;;;;;16.80;5.60;;;19.40;99.90;;;;;;5043444;28;20484;-73
2023/06/07 13:08:23;;;;;;;9.63;5.13;;;19.40;99.90;;;;;;5039757;28;20127;-73
2023/06/07 13:10:48;;;;;;;10.48;5.30;;;19.40;99.90;;;;;;5045508;28;20063;-73
2023/06/07 13:13:14;;;;;;;9.95;5.38;;;19.50;99.90;;;;;;5045462;28;20041;-74
2023/06/07 13:15:41;;;;;;;8.00;4.88;;;;;;;;;;5044853;28;20042;-73
2023/06/07 13:18:06;;;;;;;10.52;5.40;;;;;;;;;;5039184;28;20071;-74
2023/06/07 13:20:33;;;;;;;12.60;5.13;;;;;;;;;;5036071;28;20053;-73
2023/06/07 13:22:58;;;;;;;17.50;5.53;;;20.00;99.90;;;;;;5038118;28;20049;-73
2023/06/07 13:25:24;;;;;;;15.40;5.80;;;20.30;99.90;;;;;;5038725;28;20512;-74
2023/06/07 13:27:49;;;;;;;11.02;5.72;;;20.30;99.90;;;;;;5048270;28;20083;-73
2023/06/07 13:30:15;;;;;;;12.52;5.60;;;20.30;99.90;;;;;;5049533;28;20102;-73
2023/06/07 13:32:41;;;;;;;10.63;5.18;;;20.40;99.90;;;;;;5043730;28;20073;-73
2023/06/07 13:35:07;;;;;;;11.35;5.20;;;20.40;99.90;;;;;;5045486;28;20073;-72
2023/06/07 13:37:33;;;;;;;7.30;5.10;;;20.50;99.90;;;;;;5046748;28;20544;-72
2023/06/07 13:39:58;;;;;;;10.75;5.45;;;20.50;99.90;;;;;;5051655;28;20044;-72
2023/06/07 13:42:26;;;;;;;11.82;5.32;;;20.50;99.90;;;;;;5045418;28;20064;-72
2023/06/07 13:44:52;;;;;;;15.60;6.28;;;20.60;99.90;;;;;;5036233;28;20071;-72
2023/06/07 13:47:20;;;;;;;10.68;5.70;;;20.70;99.90;;;;;;5047776;28;20106;-72
2023/06/07 13:49:46;;;;;;;10.98;5.63;;;20.60;99.90;;;;;;5043417;28;20436;-73
2023/06/07 13:52:11;;;;;;;12.35;5.53;;;20.70;99.90;;;;;;5047594;28;20042;-73
2023/06/07 13:54:37;;;;;;;10.63;5.38;;;20.80;99.90;;;;;;5055175;28;20049;-73
2023/06/07 13:57:03;;;;;;;8.82;5.00;;;21.00;99.90;;;;;;5040930;28;20056;-72
2023/06/07 13:59:29;;;;;;;13.68;5.57;;;;;;;;;;5047097;28;20036;-72
2023/06/07 14:01:59;;;;;;;13.70;5.20;;;21.20;99.90;;;;;;5040965;28;20493;-73
2023/06/07 14:04:26;;;;;;;9.90;4.90;;;;;;;;;;5037329;28;20055;-72
2023/06/07 14:06:52;;;;;;;11.52;5.57;;;21.70;99.90;;;;;;5045041;28;20068;-72
2023/06/07 14:09:19;;;;;;;14.07;5.43;;;22.10;99.90;;;;;;5035037;28;20044;-72
2023/06/07 14:11:45;;;;;;;9.90;5.15;;;;;;;;;;5048163;28;20129;-71
2023/06/07 14:14:11;;;;;;;12.30;5.40;;;;;;;;;;5046825;28;20045;-71
2023/06/07 14:16:37;;;;;;;11.23;5.28;;;;;;;;;;5034647;28;20128;-71
2023/06/07 14:19:03;;;;;;;13.63;5.38;;;;;;;;;;5046791;28;20399;-71
2023/06/07 14:21:29;;;;;;;8.77;4.82;;;;;;;;;;5045461;28;20056;-72
2023/06/07 14:23:55;;;;;;;10.85;4.88;;;;;;;;;;5048592;28;20070;-72
2023/06/07 14:26:21;;;;;;;8.73;5.20;;;;;;;;;;5042904;28;20076;-72
2023/06/07 14:28:48;;;;;;;10.18;5.20;;;;;;;;;;5041967;28;20045;-71
2023/06/07 14:31:17;;;;;;;11.48;4.88;;;;;;;;;;5036275;28;20496;-71
2023/06/07 14:33:43;;;;;;;7.32;4.70;;;;;;;;;;5046470;28;20060;-72
2023/06/07 14:36:09;;;;;;;10.27;4.55;;;;;;;;;;5038695;28;20049;-72
2023/06/07 14:38:35;;;;;;;7.57;4.25;;;;;;;;;;5040380;28;20120;-71
2023/06/07 14:41:02;;;;;;;12.13;5.05;;;;;;;;;;5043683;28;20080;-73
2023/06/07 14:43:28;;;;;;;8.23;4.18;;;;;;;;;;5031141;28;20052;-74
2023/06/07 14:45:54;;;;;;;8.20;4.53;;;;;;;;;;5041336;28;20140;-74
2023/06/07 14:48:20;;;;;;;9.98;4.20;;;;;;;;;;5031365;28;20045;-76
2023/06/07 14:50:46;;;;;;;7.93;4.00;;;;;;;;;;5032339;28;20060;-75